sensor_id;sensor_type;location;lat;lon;timestamp;pressure;altitude;pressure_sealevel;temperature;humidity
75039;BME280;63609;49.992;14.512;2023-03-12T00:00:18;97618.13;;;-2.59;58.58
75039;BME280;63609;49.992;14.512;2023-03-12T00:02:45;97612.19;;;-2.96;58.88
75039;BME280;63609;49.992;14.512;2023-03-12T00:05:12;97621.88;;;-2.81;59.13
75039;BME280;63609;49.992;14.512;2023-03-12T00:07:39;97626.84;;;-2.94;59.05
75039;BME280;63609;49.992;14.512;2023-03-12T00:10:07;97619.19;;;-2.97;59.83
75039;BME280;63609;49.992;14.512;2023-03-12T00:12:34;97622.97;;;-3.19;60.17
75039;BME280;63609;49.992;14.512;2023-03-12T00:15:01;97622.13;;;-3.03;59.64
75039;BME280;63609;49.992;14.512;2023-03-12T00:17:28;97616.91;;;-3.20;60.14
75039;BME280;63609;49.992;14.512;2023-03-12T00:19:56;97623.59;;;-3.14;60.16
75039;BME280;63609;49.992;14.512;2023-03-12T00:22:23;97626.41;;;-3.02;60.11
75039;BME280;63609;49.992;14.512;2023-03-12T00:24:55;97628.94;;;-3.35;60.36
75039;BME280;63609;49.992;14.512;2023-03-12T00:27:23;97635.53;;;-2.93;60.09
75039;BME280;63609;49.992;14.512;2023-03-12T00:29:50;97636.81;;;-2.67;58.73
75039;BME280;63609;49.992;14.512;2023-03-12T00:32:17;97640.75;;;-2.76;59.10
75039;BME280;63609;49.992;14.512;2023-03-12T00:34:48;97633.09;;;-2.96;59.62
75039;BME280;63609;49.992;14.512;2023-03-12T00:37:15;97635.09;;;-3.01;59.24
75039;BME280;63609;49.992;14.512;2023-03-12T00:39:42;97642.16;;;-3.03;59.88
75039;BME280;63609;49.992;14.512;2023-03-12T00:42:13;97643.03;;;-3.20;59.86
75039;BME280;63609;49.992;14.512;2023-03-12T00:44:40;97646.25;;;-3.15;60.46
75039;BME280;63609;49.992;14.512;2023-03-12T00:47:07;97648.16;;;-3.01;59.92
75039;BME280;63609;49.992;14.512;2023-03-12T00:49:34;97650.69;;;-3.17;59.85
75039;BME280;63609;49.992;14.512;2023-03-12T00:52:01;97653.47;;;-3.20;60.27
75039;BME280;63609;49.992;14.512;2023-03-12T00:54:29;97644.47;;;-3.14;60.39
75039;BME280;63609;49.992;14.512;2023-03-12T00:56:56;97645.16;;;-3.28;60.52
75039;BME280;63609;49.992;14.512;2023-03-12T00:59:23;97649.31;;;-3.07;60.29
75039;BME280;63609;49.992;14.512;2023-03-12T01:03:30;97652.91;;;-3.44;61.96
75039;BME280;63609;49.992;14.512;2023-03-12T01:05:57;97662.81;;;-3.33;61.55
75039;BME280;63609;49.992;14.512;2023-03-12T01:08:24;97662.81;;;-2.99;60.21
75039;BME280;63609;49.992;14.512;2023-03-12T01:10:52;97661.66;;;-2.76;59.40
75039;BME280;63609;49.992;14.512;2023-03-12T01:13:19;97662.69;;;-2.63;58.79
75039;BME280;63609;49.992;14.512;2023-03-12T01:15:46;97658.13;;;-2.75;58.66
75039;BME280;63609;49.992;14.512;2023-03-12T01:18:13;97656.44;;;-3.10;59.79
75039;BME280;63609;49.992;14.512;2023-03-12T01:20:40;97664.78;;;-3.21;60.28
75039;BME280;63609;49.992;14.512;2023-03-12T01:23:08;97671.16;;;-3.27;60.36
75039;BME280;63609;49.992;14.512;2023-03-12T01:25:35;97662.50;;;-3.44;60.80
75039;BME280;63609;49.992;14.512;2023-03-12T01:28:03;97661.06;;;-3.15;59.91
75039;BME280;63609;49.992;14.512;2023-03-12T01:30:30;97660.88;;;-3.30;60.21
75039;BME280;63609;49.992;14.512;2023-03-12T01:32:58;97654.06;;;-3.32;60.57
75039;BME280;63609;49.992;14.512;2023-03-12T01:35:25;97659.47;;;-3.54;60.82
75039;BME280;63609;49.992;14.512;2023-03-12T01:37:52;97661.34;;;-3.21;60.18
75039;BME280;63609;49.992;14.512;2023-03-12T01:40:22;97663.50;;;-3.47;60.93
75039;BME280;63609;49.992;14.512;2023-03-12T01:42:56;97663.56;;;-3.48;60.28
75039;BME280;63609;49.992;14.512;2023-03-12T01:46:04;97660.97;;;-3.14;59.70
75039;BME280;63609;49.992;14.512;2023-03-12T01:48:39;97652.81;;;-2.90;58.88
75039;BME280;63609;49.992;14.512;2023-03-12T01:51:09;97661.69;;;-2.60;57.18
75039;BME280;63609;49.992;14.512;2023-03-12T01:53:39;97665.38;;;-2.47;57.53
75039;BME280;63609;49.992;14.512;2023-03-12T01:56:19;97663.00;;;-2.51;57.73
75039;BME280;63609;49.992;14.512;2023-03-12T01:58:50;97668.59;;;-2.59;57.53
75039;BME280;63609;49.992;14.512;2023-03-12T02:01:19;97674.47;;;-2.88;57.85
75039;BME280;63609;49.992;14.512;2023-03-12T02:04:17;97671.50;;;-3.15;59.07
75039;BME280;63609;49.992;14.512;2023-03-12T02:07:15;97676.38;;;-3.44;59.63
75039;BME280;63609;49.992;14.512;2023-03-12T02:09:48;97669.81;;;-3.16;59.18
75039;BME280;63609;49.992;14.512;2023-03-12T02:12:16;97668.03;;;-2.99;58.93
75039;BME280;63609;49.992;14.512;2023-03-12T02:14:44;97664.97;;;-3.07;59.10
75039;BME280;63609;49.992;14.512;2023-03-12T02:17:11;97681.78;;;-2.78;58.18
75039;BME280;63609;49.992;14.512;2023-03-12T02:19:54;97666.13;;;-2.45;56.18
75039;BME280;63609;49.992;14.512;2023-03-12T02:22:27;97668.91;;;-2.48;56.04
75039;BME280;63609;49.992;14.512;2023-03-12T02:27:23;97673.91;;;-2.27;55.59
75039;BME280;63609;49.992;14.512;2023-03-12T02:29:53;97673.56;;;-2.37;55.20
75039;BME280;63609;49.992;14.512;2023-03-12T02:32:22;97676.53;;;-2.60;56.21
75039;BME280;63609;49.992;14.512;2023-03-12T02:34:50;97672.06;;;-2.25;54.43
75039;BME280;63609;49.992;14.512;2023-03-12T02:37:17;97685.50;;;-2.16;53.65
75039;BME280;63609;49.992;14.512;2023-03-12T02:39:50;97690.81;;;-2.50;55.43
75039;BME280;63609;49.992;14.512;2023-03-12T02:42:22;97684.84;;;-2.52;54.43
75039;BME280;63609;49.992;14.512;2023-03-12T02:44:50;97691.94;;;-2.39;54.31
75039;BME280;63609;49.992;14.512;2023-03-12T02:47:19;97694.13;;;-2.47;53.81
75039;BME280;63609;49.992;14.512;2023-03-12T02:49:47;97703.41;;;-2.41;53.90
75039;BME280;63609;49.992;14.512;2023-03-12T02:52:14;97699.06;;;-2.75;54.75
75039;BME280;63609;49.992;14.512;2023-03-12T02:54:41;97703.00;;;-2.84;55.52
75039;BME280;63609;49.992;14.512;2023-03-12T02:57:09;97704.81;;;-3.03;56.20
75039;BME280;63609;49.992;14.512;2023-03-12T02:59:37;97706.13;;;-2.77;55.49
75039;BME280;63609;49.992;14.512;2023-03-12T03:02:06;97706.91;;;-2.75;55.52
75039;BME280;63609;49.992;14.512;2023-03-12T03:04:35;97704.84;;;-2.86;56.03
75039;BME280;63609;49.992;14.512;2023-03-12T03:07:02;97705.97;;;-3.09;57.13
75039;BME280;63609;49.992;14.512;2023-03-12T03:09:30;97713.88;;;-3.10;57.17
75039;BME280;63609;49.992;14.512;2023-03-12T03:11:58;97712.91;;;-2.73;56.55
75039;BME280;63609;49.992;14.512;2023-03-12T03:14:28;97712.75;;;-2.70;55.88
75039;BME280;63609;49.992;14.512;2023-03-12T03:16:55;97714.88;;;-2.96;57.46
75039;BME280;63609;49.992;14.512;2023-03-12T03:19:22;97724.75;;;-2.83;56.82
75039;BME280;63609;49.992;14.512;2023-03-12T03:21:49;97723.72;;;-3.15;57.57
75039;BME280;63609;49.992;14.512;2023-03-12T03:24:16;97722.50;;;-2.74;56.55
75039;BME280;63609;49.992;14.512;2023-03-12T03:26:43;97724.81;;;-2.85;56.58
75039;BME280;63609;49.992;14.512;2023-03-12T03:29:10;97727.72;;;-2.74;55.94
75039;BME280;63609;49.992;14.512;2023-03-12T03:31:38;97725.56;;;-3.00;57.55
75039;BME280;63609;49.992;14.512;2023-03-12T03:34:05;97728.25;;;-2.67;56.24
75039;BME280;63609;49.992;14.512;2023-03-12T03:36:35;97731.16;;;-2.39;55.62
75039;BME280;63609;49.992;14.512;2023-03-12T03:39:07;97723.72;;;-2.46;55.20
75039;BME280;63609;49.992;14.512;2023-03-12T03:41:35;97713.44;;;-2.67;55.75
75039;BME280;63609;49.992;14.512;2023-03-12T03:44:04;97726.41;;;-2.65;56.95
75039;BME280;63609;49.992;14.512;2023-03-12T03:46:34;97722.09;;;-2.66;56.58
75039;BME280;63609;49.992;14.512;2023-03-12T03:49:05;97735.03;;;-2.80;57.32
75039;BME280;63609;49.992;14.512;2023-03-12T03:51:32;97737.16;;;-2.88;57.69
75039;BME280;63609;49.992;14.512;2023-03-12T03:54:05;97729.25;;;-2.52;55.93
75039;BME280;63609;49.992;14.512;2023-03-12T03:56:32;97739.41;;;-2.81;57.05
75039;BME280;63609;49.992;14.512;2023-03-12T03:59:01;97740.56;;;-2.86;57.29
75039;BME280;63609;49.992;14.512;2023-03-12T04:01:33;97748.31;;;-2.85;56.93
75039;BME280;63609;49.992;14.512;2023-03-12T04:04:02;97738.56;;;-2.64;56.15
75039;BME280;63609;49.992;14.512;2023-03-12T04:06:31;97756.56;;;-2.25;55.02
75039;BME280;63609;49.992;14.512;2023-03-12T04:09:01;97758.13;;;-2.55;55.67
75039;BME280;63609;49.992;14.512;2023-03-12T04:11:31;97750.66;;;-3.15;57.47
75039;BME280;63609;49.992;14.512;2023-03-12T04:14:02;97759.06;;;-2.74;56.61
75039;BME280;63609;49.992;14.512;2023-03-12T04:16:36;97767.44;;;-2.67;56.23
75039;BME280;63609;49.992;14.512;2023-03-12T04:19:04;97764.38;;;-2.58;55.14
75039;BME280;63609;49.992;14.512;2023-03-12T04:21:31;97767.63;;;-2.53;55.61
75039;BME280;63609;49.992;14.512;2023-03-12T04:23:58;97765.38;;;-2.60;55.85
75039;BME280;63609;49.992;14.512;2023-03-12T04:26:31;97771.22;;;-2.38;53.98
75039;BME280;63609;49.992;14.512;2023-03-12T04:28:59;97765.97;;;-2.55;55.28
75039;BME280;63609;49.992;14.512;2023-03-12T04:31:27;97765.63;;;-2.48;54.83
75039;BME280;63609;49.992;14.512;2023-03-12T04:33:55;97767.16;;;-2.44;53.40
75039;BME280;63609;49.992;14.512;2023-03-12T04:36:23;97761.00;;;-2.60;53.11
75039;BME280;63609;49.992;14.512;2023-03-12T04:38:52;97770.91;;;-2.84;54.42
75039;BME280;63609;49.992;14.512;2023-03-12T04:41:24;97768.03;;;-2.97;55.55
75039;BME280;63609;49.992;14.512;2023-03-12T04:43:58;97768.38;;;-2.68;54.65
75039;BME280;63609;49.992;14.512;2023-03-12T04:46:25;97765.44;;;-3.33;56.02
75039;BME280;63609;49.992;14.512;2023-03-12T04:48:53;97765.81;;;-3.78;58.28
75039;BME280;63609;49.992;14.512;2023-03-12T04:51:21;97777.38;;;-3.65;58.21
75039;BME280;63609;49.992;14.512;2023-03-12T04:53:48;97775.19;;;-3.55;58.30
75039;BME280;63609;49.992;14.512;2023-03-12T04:56:15;97771.50;;;-3.32;57.43
75039;BME280;63609;49.992;14.512;2023-03-12T04:58:45;97766.03;;;-3.45;58.04
75039;BME280;63609;49.992;14.512;2023-03-12T05:01:24;97759.75;;;-3.78;59.13
75039;BME280;63609;49.992;14.512;2023-03-12T05:03:52;97769.13;;;-3.37;58.64
75039;BME280;63609;49.992;14.512;2023-03-12T05:06:20;97776.53;;;-3.46;58.50
75039;BME280;63609;49.992;14.512;2023-03-12T05:08:49;97786.63;;;-3.76;59.09
75039;BME280;63609;49.992;14.512;2023-03-12T05:11:17;97781.06;;;-3.50;59.00
75039;BME280;63609;49.992;14.512;2023-03-12T05:13:45;97787.75;;;-3.63;59.59
75039;BME280;63609;49.992;14.512;2023-03-12T05:16:14;97794.56;;;-3.61;59.81
75039;BME280;63609;49.992;14.512;2023-03-12T05:18:43;97792.66;;;-3.57;59.38
75039;BME280;63609;49.992;14.512;2023-03-12T05:21:17;97791.75;;;-3.56;59.90
75039;BME280;63609;49.992;14.512;2023-03-12T05:23:47;97794.44;;;-3.58;59.30
75039;BME280;63609;49.992;14.512;2023-03-12T05:26:16;97798.34;;;-3.47;59.62
75039;BME280;63609;49.992;14.512;2023-03-12T05:28:47;97791.69;;;-3.36;58.91
75039;BME280;63609;49.992;14.512;2023-03-12T05:31:16;97801.41;;;-3.39;58.28
75039;BME280;63609;49.992;14.512;2023-03-12T05:33:44;97800.50;;;-3.38;58.56
75039;BME280;63609;49.992;14.512;2023-03-12T05:36:12;97802.75;;;-3.12;57.63
75039;BME280;63609;49.992;14.512;2023-03-12T05:38:44;97803.59;;;-3.30;57.86
75039;BME280;63609;49.992;14.512;2023-03-12T05:41:28;97798.97;;;-3.42;58.43
75039;BME280;63609;49.992;14.512;2023-03-12T05:43:59;97800.16;;;-3.49;58.42
75039;BME280;63609;49.992;14.512;2023-03-12T05:46:30;97797.16;;;-3.04;57.82
75039;BME280;63609;49.992;14.512;2023-03-12T05:49:01;97803.25;;;-3.41;59.14
75039;BME280;63609;49.992;14.512;2023-03-12T05:51:31;97806.56;;;-3.75;60.66
75039;BME280;63609;49.992;14.512;2023-03-12T05:53:59;97794.59;;;-3.42;59.80
75039;BME280;63609;49.992;14.512;2023-03-12T05:56:27;97794.72;;;-3.45;60.17
75039;BME280;63609;49.992;14.512;2023-03-12T05:58:55;97791.13;;;-3.42;59.89
75039;BME280;63609;49.992;14.512;2023-03-12T06:01:26;97794.22;;;-2.98;58.73
75039;BME280;63609;49.992;14.512;2023-03-12T06:03:57;97801.53;;;-3.23;60.16
75039;BME280;63609;49.992;14.512;2023-03-12T06:06:29;97796.63;;;-2.94;59.26
75039;BME280;63609;49.992;14.512;2023-03-12T06:08:59;97802.41;;;-2.87;58.70
75039;BME280;63609;49.992;14.512;2023-03-12T06:11:29;97803.25;;;-2.69;58.42
75039;BME280;63609;49.992;14.512;2023-03-12T06:13:57;97806.34;;;-2.78;59.02
75039;BME280;63609;49.992;14.512;2023-03-12T06:16:28;97798.47;;;-2.96;59.98
75039;BME280;63609;49.992;14.512;2023-03-12T06:19:01;97799.03;;;-2.37;58.99
75039;BME280;63609;49.992;14.512;2023-03-12T06:21:31;97792.44;;;-1.94;57.55
75039;BME280;63609;49.992;14.512;2023-03-12T06:24:04;97785.34;;;-1.92;57.38
75039;BME280;63609;49.992;14.512;2023-03-12T06:26:40;97790.31;;;-2.03;58.03
75039;BME280;63609;49.992;14.512;2023-03-12T06:29:10;97789.72;;;-1.92;58.02
75039;BME280;63609;49.992;14.512;2023-03-12T06:31:41;97803.88;;;-2.12;58.48
75039;BME280;63609;49.992;14.512;2023-03-12T06:34:10;97805.72;;;-2.32;59.00
75039;BME280;63609;49.992;14.512;2023-03-12T06:36:37;97802.03;;;-2.10;59.01
75039;BME280;63609;49.992;14.512;2023-03-12T06:39:05;97805.22;;;-2.05;58.59
75039;BME280;63609;49.992;14.512;2023-03-12T06:41:35;97802.44;;;-1.85;58.93
75039;BME280;63609;49.992;14.512;2023-03-12T06:44:06;97809.88;;;-2.10;58.31
75039;BME280;63609;49.992;14.512;2023-03-12T06:46:34;97808.19;;;-2.46;59.74
75039;BME280;63609;49.992;14.512;2023-03-12T06:49:01;97802.59;;;-2.21;58.92
75039;BME280;63609;49.992;14.512;2023-03-12T06:51:35;97811.66;;;-2.45;59.24
75039;BME280;63609;49.992;14.512;2023-03-12T06:54:02;97805.66;;;-2.47;59.02
75039;BME280;63609;49.992;14.512;2023-03-12T06:56:31;97811.94;;;-2.34;59.09
75039;BME280;63609;49.992;14.512;2023-03-12T06:58:59;97819.66;;;-2.48;59.41
75039;BME280;63609;49.992;14.512;2023-03-12T07:01:26;97815.41;;;-2.16;58.58
75039;BME280;63609;49.992;14.512;2023-03-12T07:03:54;97818.44;;;-1.91;57.51
75039;BME280;63609;49.992;14.512;2023-03-12T07:06:26;97828.25;;;-2.46;59.06
75039;BME280;63609;49.992;14.512;2023-03-12T07:09:03;97827.47;;;-2.31;58.62
75039;BME280;63609;49.992;14.512;2023-03-12T07:11:31;97830.88;;;-2.12;58.13
75039;BME280;63609;49.992;14.512;2023-03-12T07:14:01;97826.78;;;-1.67;57.96
75039;BME280;63609;49.992;14.512;2023-03-12T07:16:29;97823.09;;;-1.31;57.13
75039;BME280;63609;49.992;14.512;2023-03-12T07:18:57;97830.78;;;-1.44;57.41
75039;BME280;63609;49.992;14.512;2023-03-12T07:21:25;97824.28;;;-1.37;56.95
75039;BME280;63609;49.992;14.512;2023-03-12T07:23:53;97821.19;;;-1.12;56.09
75039;BME280;63609;49.992;14.512;2023-03-12T07:26:20;97825.63;;;-1.46;55.82
75039;BME280;63609;49.992;14.512;2023-03-12T07:28:48;97826.56;;;-1.47;56.54
75039;BME280;63609;49.992;14.512;2023-03-12T07:31:16;97819.28;;;-1.57;56.98
75039;BME280;63609;49.992;14.512;2023-03-12T07:33:43;97819.47;;;-1.29;55.59
75039;BME280;63609;49.992;14.512;2023-03-12T07:36:12;97831.63;;;-1.28;55.26
75039;BME280;63609;49.992;14.512;2023-03-12T07:38:41;97828.25;;;-0.98;56.22
75039;BME280;63609;49.992;14.512;2023-03-12T07:41:09;97828.16;;;-0.81;55.46
75039;BME280;63609;49.992;14.512;2023-03-12T07:43:43;97828.59;;;-1.04;54.77
75039;BME280;63609;49.992;14.512;2023-03-12T07:46:13;97830.66;;;-0.64;55.18
75039;BME280;63609;49.992;14.512;2023-03-12T07:48:43;97830.81;;;-0.21;55.65
75039;BME280;63609;49.992;14.512;2023-03-12T07:51:13;97827.28;;;-0.66;54.44
75039;BME280;63609;49.992;14.512;2023-03-12T07:53:40;97831.72;;;-0.82;55.67
75039;BME280;63609;49.992;14.512;2023-03-12T07:56:10;97828.84;;;-0.93;54.76
75039;BME280;63609;49.992;14.512;2023-03-12T07:58:37;97830.91;;;-1.14;55.29
75039;BME280;63609;49.992;14.512;2023-03-12T08:01:05;97819.56;;;-0.99;55.47
75039;BME280;63609;49.992;14.512;2023-03-12T08:03:34;97830.25;;;-0.26;53.61
75039;BME280;63609;49.992;14.512;2023-03-12T08:06:03;97820.78;;;-0.59;54.00
75039;BME280;63609;49.992;14.512;2023-03-12T08:08:33;97824.09;;;-0.11;53.64
75039;BME280;63609;49.992;14.512;2023-03-12T08:11:03;97827.75;;;-0.14;52.85
75039;BME280;63609;49.992;14.512;2023-03-12T08:13:31;97825.50;;;-0.05;52.29
75039;BME280;63609;49.992;14.512;2023-03-12T08:15:58;97825.59;;;-0.07;52.11
75039;BME280;63609;49.992;14.512;2023-03-12T08:18:26;97828.34;;;0.06;52.50
75039;BME280;63609;49.992;14.512;2023-03-12T08:20:54;97829.44;;;-0.43;51.82
75039;BME280;63609;49.992;14.512;2023-03-12T08:23:21;97827.50;;;0.19;52.17
75039;BME280;63609;49.992;14.512;2023-03-12T08:25:49;97817.56;;;0.25;50.57
75039;BME280;63609;49.992;14.512;2023-03-12T08:28:18;97825.72;;;0.77;49.28
75039;BME280;63609;49.992;14.512;2023-03-12T08:30:53;97819.91;;;0.72;49.34
75039;BME280;63609;49.992;14.512;2023-03-12T08:33:21;97817.78;;;0.91;48.06
75039;BME280;63609;49.992;14.512;2023-03-12T08:35:48;97808.63;;;0.70;48.93
75039;BME280;63609;49.992;14.512;2023-03-12T08:38:16;97818.88;;;0.74;48.43
75039;BME280;63609;49.992;14.512;2023-03-12T08:40:44;97820.75;;;1.13;47.21
75039;BME280;63609;49.992;14.512;2023-03-12T08:43:11;97820.22;;;1.08;47.75
75039;BME280;63609;49.992;14.512;2023-03-12T08:45:39;97817.69;;;1.07;47.33
75039;BME280;63609;49.992;14.512;2023-03-12T08:48:07;97822.66;;;1.38;45.99
75039;BME280;63609;49.992;14.512;2023-03-12T08:50:36;97819.09;;;1.39;44.85
75039;BME280;63609;49.992;14.512;2023-03-12T08:53:04;97826.59;;;1.58;46.82
75039;BME280;63609;49.992;14.512;2023-03-12T08:55:31;97823.66;;;1.63;45.58
75039;BME280;63609;49.992;14.512;2023-03-12T08:57:59;97821.88;;;1.51;46.00
75039;BME280;63609;49.992;14.512;2023-03-12T09:00:27;97819.88;;;1.67;44.90
75039;BME280;63609;49.992;14.512;2023-03-12T09:02:55;97820.41;;;1.59;44.67
75039;BME280;63609;49.992;14.512;2023-03-12T09:05:25;97814.91;;;2.27;43.39
75039;BME280;63609;49.992;14.512;2023-03-12T09:08:00;97814.69;;;2.18;45.58
75039;BME280;63609;49.992;14.512;2023-03-12T09:10:32;97812.16;;;2.29;43.78
75039;BME280;63609;49.992;14.512;2023-03-12T09:13:01;97816.94;;;2.86;43.48
75039;BME280;63609;49.992;14.512;2023-03-12T09:15:28;97815.03;;;2.39;43.63
75039;BME280;63609;49.992;14.512;2023-03-12T09:17:57;97816.50;;;2.17;43.71
75039;BME280;63609;49.992;14.512;2023-03-12T09:20:24;97814.50;;;2.08;42.96
75039;BME280;63609;49.992;14.512;2023-03-12T09:22:54;97813.00;;;2.67;42.25
75039;BME280;63609;49.992;14.512;2023-03-12T09:25:22;97815.13;;;2.37;41.79
75039;BME280;63609;49.992;14.512;2023-03-12T09:27:53;97805.88;;;3.41;40.26
75039;BME280;63609;49.992;14.512;2023-03-12T09:30:25;97821.88;;;2.90;40.62
75039;BME280;63609;49.992;14.512;2023-03-12T09:32:55;97810.25;;;2.69;40.93
75039;BME280;63609;49.992;14.512;2023-03-12T09:35:23;97816.88;;;3.11;41.71
75039;BME280;63609;49.992;14.512;2023-03-12T09:37:52;97807.66;;;3.17;41.26
75039;BME280;63609;49.992;14.512;2023-03-12T09:40:23;97808.13;;;3.35;39.16
75039;BME280;63609;49.992;14.512;2023-03-12T09:42:56;97814.13;;;4.31;37.71
75039;BME280;63609;49.992;14.512;2023-03-12T09:45:27;97799.72;;;4.68;37.09
75039;BME280;63609;49.992;14.512;2023-03-12T09:47:59;97803.66;;;4.40;38.37
75039;BME280;63609;49.992;14.512;2023-03-12T09:50:30;97805.84;;;3.89;38.42
75039;BME280;63609;49.992;14.512;2023-03-12T09:53:02;97796.56;;;4.41;38.45
75039;BME280;63609;49.992;14.512;2023-03-12T09:55:36;97801.22;;;4.26;38.40
75039;BME280;63609;49.992;14.512;2023-03-12T09:58:12;97793.31;;;4.48;36.65
75039;BME280;63609;49.992;14.512;2023-03-12T10:00:39;97802.31;;;3.77;35.82
75039;BME280;63609;49.992;14.512;2023-03-12T10:03:21;97796.47;;;3.85;35.75
75039;BME280;63609;49.992;14.512;2023-03-12T10:06:15;97789.16;;;3.88;36.18
75039;BME280;63609;49.992;14.512;2023-03-12T10:09:06;97792.91;;;3.38;37.13
75039;BME280;63609;49.992;14.512;2023-03-12T10:17:04;97793.88;;;3.13;37.51
75039;BME280;63609;49.992;14.512;2023-03-12T10:20:09;97780.94;;;3.45;38.74
75039;BME280;63609;49.992;14.512;2023-03-12T10:22:48;97780.91;;;3.34;37.56
75039;BME280;63609;49.992;14.512;2023-03-12T10:28:18;97777.31;;;3.35;39.73
75039;BME280;63609;49.992;14.512;2023-03-12T10:31:24;97784.53;;;2.96;41.52
75039;BME280;63609;49.992;14.512;2023-03-12T10:33:56;97778.53;;;3.42;38.82
75039;BME280;63609;49.992;14.512;2023-03-12T10:38:59;97774.56;;;3.96;36.96
75039;BME280;63609;49.992;14.512;2023-03-12T10:41:32;97773.88;;;4.38;37.79
75039;BME280;63609;49.992;14.512;2023-03-12T10:44:05;97768.09;;;3.76;38.89
75039;BME280;63609;49.992;14.512;2023-03-12T10:49:29;97759.69;;;3.12;39.55
75039;BME280;63609;49.992;14.512;2023-03-12T10:52:20;97752.72;;;4.05;38.49
75039;BME280;63609;49.992;14.512;2023-03-12T10:54:50;97749.00;;;4.07;38.91
75039;BME280;63609;49.992;14.512;2023-03-12T10:57:19;97753.44;;;3.96;39.79
75039;BME280;63609;49.992;14.512;2023-03-12T10:59:48;97755.00;;;4.09;39.75
75039;BME280;63609;49.992;14.512;2023-03-12T11:04:54;97758.97;;;4.71;37.09
75039;BME280;63609;49.992;14.512;2023-03-12T11:07:31;97749.88;;;5.07;37.22
75039;BME280;63609;49.992;14.512;2023-03-12T11:12:38;97745.00;;;5.23;35.39
75039;BME280;63609;49.992;14.512;2023-03-12T11:15:23;97731.75;;;5.23;35.87
75039;BME280;63609;49.992;14.512;2023-03-12T11:17:51;97723.63;;;5.68;35.25
75039;BME280;63609;49.992;14.512;2023-03-12T11:20:28;97735.19;;;5.67;35.76
75039;BME280;63609;49.992;14.512;2023-03-12T11:22:56;97735.88;;;5.16;36.20
75039;BME280;63609;49.992;14.512;2023-03-12T11:25:28;97726.56;;;5.54;36.17
75039;BME280;63609;49.992;14.512;2023-03-12T11:27:59;97722.25;;;6.15;35.14
75039;BME280;63609;49.992;14.512;2023-03-12T11:30:38;97712.63;;;6.54;33.75
75039;BME280;63609;49.992;14.512;2023-03-12T11:34:34;97716.13;;;5.52;33.96
75039;BME280;63609;49.992;14.512;2023-03-12T11:45:39;97725.13;;;5.61;36.20
75039;BME280;63609;49.992;14.512;2023-03-12T11:51:12;97737.25;;;5.63;35.50
75039;BME280;63609;49.992;14.512;2023-03-12T11:59:56;97713.19;;;6.48;33.61
75039;BME280;63609;49.992;14.512;2023-03-12T12:05:21;97712.63;;;5.52;36.20
75039;BME280;63609;49.992;14.512;2023-03-12T12:08:22;97690.16;;;6.08;35.30
75039;BME280;63609;49.992;14.512;2023-03-12T12:16:34;97681.06;;;5.81;36.21
75039;BME280;63609;49.992;14.512;2023-03-12T12:22:09;97667.00;;;5.80;36.33
75039;BME280;63609;49.992;14.512;2023-03-12T12:27:20;97653.41;;;5.53;36.92
75039;BME280;63609;49.992;14.512;2023-03-12T12:30:39;97668.84;;;5.47;38.76
75039;BME280;63609;49.992;14.512;2023-03-12T12:33:50;97668.13;;;4.93;36.20
75039;BME280;63609;49.992;14.512;2023-03-12T12:36:10;97654.41;;;5.72;37.19
75039;BME280;63609;49.992;14.512;2023-03-12T12:39:48;97659.91;;;5.90;36.68
75039;BME280;63609;49.992;14.512;2023-03-12T12:46:13;97661.75;;;5.48;36.44
75039;BME280;63609;49.992;14.512;2023-03-12T12:51:15;97652.22;;;5.04;39.04
75039;BME280;63609;49.992;14.512;2023-03-12T12:56:53;97654.09;;;5.13;38.92
75039;BME280;63609;49.992;14.512;2023-03-12T12:59:36;97648.34;;;5.08;38.22
75039;BME280;63609;49.992;14.512;2023-03-12T13:02:19;97648.44;;;5.38;39.10
75039;BME280;63609;49.992;14.512;2023-03-12T13:04:48;97638.00;;;4.84;37.85
75039;BME280;63609;49.992;14.512;2023-03-12T13:09:55;97641.56;;;5.26;38.00
75039;BME280;63609;49.992;14.512;2023-03-12T13:14:55;97622.41;;;5.64;38.85
75039;BME280;63609;49.992;14.512;2023-03-12T13:20:27;97631.09;;;4.93;38.04
75039;BME280;63609;49.992;14.512;2023-03-12T13:30:56;97640.09;;;5.01;39.56
75039;BME280;63609;49.992;14.512;2023-03-12T13:33:45;97630.25;;;4.92;38.46
75039;BME280;63609;49.992;14.512;2023-03-12T13:38:58;97618.59;;;4.95;38.08
75039;BME280;63609;49.992;14.512;2023-03-12T13:49:53;97618.97;;;4.58;38.12
75039;BME280;63609;49.992;14.512;2023-03-12T13:55:23;97614.13;;;4.20;39.68
75039;BME280;63609;49.992;14.512;2023-03-12T14:03:31;97609.78;;;4.41;39.27
75039;BME280;63609;49.992;14.512;2023-03-12T14:06:21;97596.06;;;4.47;39.63
75039;BME280;63609;49.992;14.512;2023-03-12T14:17:04;97582.44;;;4.63;40.50
75039;BME280;63609;49.992;14.512;2023-03-12T14:19:44;97579.72;;;4.42;40.10
75039;BME280;63609;49.992;14.512;2023-03-12T14:22:12;97578.13;;;4.62;40.04
75039;BME280;63609;49.992;14.512;2023-03-12T14:24:46;97566.34;;;4.55;39.77
75039;BME280;63609;49.992;14.512;2023-03-12T14:27:18;97566.94;;;4.59;40.37
75039;BME280;63609;49.992;14.512;2023-03-12T14:32:36;97578.50;;;4.46;39.94
75039;BME280;63609;49.992;14.512;2023-03-12T14:35:15;97558.84;;;4.71;39.73
75039;BME280;63609;49.992;14.512;2023-03-12T14:37:59;97568.94;;;4.34;38.38
75039;BME280;63609;49.992;14.512;2023-03-12T14:43:19;97566.00;;;4.48;41.39
75039;BME280;63609;49.992;14.512;2023-03-12T14:45:56;97570.28;;;4.29;40.72
75039;BME280;63609;49.992;14.512;2023-03-12T14:48:33;97570.63;;;4.24;40.43
75039;BME280;63609;49.992;14.512;2023-03-12T14:51:04;97563.97;;;4.09;41.14
75039;BME280;63609;49.992;14.512;2023-03-12T14:53:34;97563.69;;;4.55;41.05
75039;BME280;63609;49.992;14.512;2023-03-12T14:58:34;97576.94;;;4.01;41.21
75039;BME280;63609;49.992;14.512;2023-03-12T15:01:12;97570.28;;;4.29;42.14
75039;BME280;63609;49.992;14.512;2023-03-12T15:03:46;97557.56;;;4.22;41.29
75039;BME280;63609;49.992;14.512;2023-03-12T15:06:19;97556.50;;;4.14;42.19
75039;BME280;63609;49.992;14.512;2023-03-12T15:08:49;97550.28;;;4.04;41.91
75039;BME280;63609;49.992;14.512;2023-03-12T15:11:24;97558.59;;;4.42;42.07